createdAt,value
2023-05-10T00:01:11.482Z,38.02
2023-05-10T00:03:42.436Z,38.05
2023-05-10T00:06:13.248Z,38.16
2023-05-10T00:08:43.776Z,38.34
2023-05-10T00:11:14.310Z,38.42
2023-05-10T00:13:44.887Z,38.50
2023-05-10T00:16:16.017Z,38.44
2023-05-10T00:18:46.597Z,38.53
2023-05-10T00:21:17.081Z,38.67
2023-05-10T00:23:47.541Z,38.64
2023-05-10T00:26:18.307Z,38.65
2023-05-10T00:28:49.457Z,38.77
2023-05-10T00:31:19.981Z,38.84
2023-05-10T00:33:50.422Z,38.87
2023-05-10T00:36:22.068Z,39.00
2023-05-10T00:38:52.596Z,39.07
2023-05-10T00:41:23.332Z,39.10
2023-05-10T00:43:54.089Z,39.13
2023-05-10T00:46:25.669Z,39.37
2023-05-10T00:48:56.680Z,39.29
2023-05-10T00:51:28.027Z,39.50
2023-05-10T00:53:58.869Z,39.66
2023-05-10T00:56:30.949Z,39.72
2023-05-10T00:59:01.868Z,39.89
2023-05-10T01:01:32.765Z,39.92
2023-05-10T01:04:04.241Z,39.87
2023-05-10T01:06:34.692Z,39.95
2023-05-10T01:09:05.308Z,40.09
2023-05-10T01:11:36.867Z,40.25
2023-05-10T01:14:08.295Z,40.16
2023-05-10T01:16:41.012Z,40.10
2023-05-10T01:19:19.135Z,40.39
2023-05-10T01:21:58.442Z,40.24
2023-05-10T01:24:52.237Z,40.50
2023-05-10T01:27:39.526Z,40.49
2023-05-10T01:30:32.610Z,40.77
2023-05-10T01:33:12.225Z,40.83
2023-05-10T01:35:49.680Z,41.02
2023-05-10T01:38:24.780Z,41.00
2023-05-10T01:41:05.058Z,40.91
2023-05-10T01:43:42.718Z,40.79
2023-05-10T01:46:18.434Z,41.00
2023-05-10T01:48:56.382Z,41.04
2023-05-10T01:51:31.864Z,41.36
2023-05-10T01:54:05.930Z,41.38
2023-05-10T01:56:40.112Z,41.49
2023-05-10T01:59:17.640Z,41.39
2023-05-10T02:01:49.177Z,41.49
2023-05-10T02:04:24.030Z,41.67
2023-05-10T02:06:55.883Z,41.80
2023-05-10T02:09:30.083Z,41.63
2023-05-10T02:12:02.002Z,41.63
2023-05-10T02:14:31.352Z,41.93
2023-05-10T02:17:04.210Z,41.76
2023-05-10T02:19:36.536Z,41.78
2023-05-10T02:22:09.264Z,41.77
2023-05-10T02:24:40.958Z,41.99
2023-05-10T02:27:12.853Z,41.91
2023-05-10T02:29:43.969Z,42.16
2023-05-10T02:32:16.603Z,41.98
2023-05-10T02:34:52.957Z,41.99
2023-05-10T02:37:24.862Z,42.23
2023-05-10T02:39:58.686Z,42.11
2023-05-10T02:42:31.494Z,42.12
2023-05-10T02:45:05.918Z,42.43
2023-05-10T02:47:36.855Z,42.33
2023-05-10T02:50:09.342Z,42.30
2023-05-10T02:52:46.358Z,42.22
2023-05-10T02:55:19.939Z,42.38
2023-05-10T02:57:58.183Z,42.64
2023-05-10T03:00:27.817Z,42.54
2023-05-10T03:02:58.341Z,42.68
2023-05-10T03:05:29.583Z,42.70
2023-05-10T03:08:01.696Z,42.49
2023-05-10T03:10:34.802Z,42.67
2023-05-10T03:13:18.431Z,42.55
2023-05-10T03:16:00.175Z,42.63
2023-05-10T03:18:37.972Z,42.71
2023-05-10T03:21:13.499Z,42.74
2023-05-10T03:23:50.073Z,42.86
2023-05-10T03:26:26.570Z,42.82
2023-05-10T03:29:02.497Z,42.58
2023-05-10T03:31:33.124Z,42.81
2023-05-10T03:34:04.183Z,42.53
2023-05-10T03:36:35.127Z,42.71
2023-05-10T03:39:05.859Z,42.87
2023-05-10T03:41:36.385Z,42.78
2023-05-10T03:44:07.498Z,43.19
2023-05-10T03:46:38.006Z,42.58
2023-05-10T03:49:08.585Z,42.54
2023-05-10T03:51:40.875Z,42.71
2023-05-10T03:54:11.349Z,42.58
2023-05-10T03:56:41.819Z,42.57
2023-05-10T03:59:12.733Z,42.83
2023-05-10T04:01:43.217Z,42.66
2023-05-10T04:04:13.808Z,42.97
2023-05-10T04:06:44.388Z,43.05
2023-05-10T04:09:15.087Z,42.84
2023-05-10T04:11:45.731Z,43.03
2023-05-10T04:14:16.175Z,42.96
2023-05-10T04:16:46.651Z,42.90
2023-05-10T04:19:17.212Z,43.12
2023-05-10T04:21:47.732Z,42.90
2023-05-10T04:24:18.221Z,43.16
2023-05-10T04:26:48.649Z,43.23
2023-05-10T04:29:19.231Z,42.94
2023-05-10T04:31:49.968Z,42.95
2023-05-10T04:34:22.909Z,42.99
2023-05-10T04:36:53.331Z,42.82
2023-05-10T04:39:23.899Z,42.87
2023-05-10T04:41:57.008Z,42.95
2023-05-10T04:44:27.464Z,42.69
2023-05-10T04:46:57.906Z,42.91
2023-05-10T04:49:28.420Z,42.94
2023-05-10T04:51:59.012Z,42.76
2023-05-10T04:54:29.464Z,42.75
2023-05-10T04:56:59.892Z,43.07
2023-05-10T04:59:30.598Z,42.99
2023-05-10T05:02:01.201Z,42.94
2023-05-10T05:04:31.965Z,42.99
2023-05-10T05:07:02.489Z,43.04
2023-05-10T05:09:33.215Z,43.02
2023-05-10T05:12:03.906Z,43.16
2023-05-10T05:14:34.421Z,42.73
2023-05-10T05:17:04.980Z,42.79
2023-05-10T05:19:36.683Z,42.70
2023-05-10T05:22:08.658Z,42.93
2023-05-10T05:24:39.399Z,43.78
2023-05-10T05:27:10.221Z,44.42
2023-05-10T05:29:40.857Z,45.16
2023-05-10T05:32:11.896Z,45.32
2023-05-10T05:34:43.188Z,44.92
2023-05-10T05:37:17.555Z,45.06
2023-05-10T05:39:48.298Z,44.55
2023-05-10T05:42:19.786Z,44.54
2023-05-10T05:44:50.458Z,44.46
2023-05-10T05:47:20.897Z,44.34
2023-05-10T05:49:51.355Z,44.15
2023-05-10T05:52:22.409Z,44.13
2023-05-10T05:54:53.102Z,44.09
2023-05-10T05:57:24.045Z,44.10
2023-05-10T05:59:54.511Z,43.88
2023-05-10T06:02:25.319Z,43.75
2023-05-10T06:04:56.147Z,43.49
2023-05-10T06:07:26.763Z,43.23
2023-05-10T06:09:57.156Z,43.36
2023-05-10T06:12:27.570Z,43.33
2023-05-10T06:14:58.010Z,43.48
2023-05-10T06:17:28.844Z,43.20
2023-05-10T06:19:59.297Z,43.05
2023-05-10T06:22:29.759Z,43.23
2023-05-10T06:25:00.203Z,43.32
2023-05-10T06:27:30.711Z,43.12
2023-05-10T06:30:11.735Z,43.00
2023-05-10T06:32:44.950Z,43.02
2023-05-10T06:35:15.917Z,42.83
2023-05-10T06:37:47.777Z,42.99
2023-05-10T06:40:19.294Z,42.91
2023-05-10T06:42:50.398Z,42.93
2023-05-10T06:45:20.578Z,43.15
2023-05-10T06:47:51.362Z,42.92
2023-05-10T06:50:21.907Z,42.80
2023-05-10T06:52:53.154Z,42.68
2023-05-10T06:55:24.660Z,42.69
2023-05-10T06:57:55.191Z,42.51
2023-05-10T07:00:26.422Z,42.54
2023-05-10T07:02:57.228Z,42.70
2023-05-10T07:05:28.854Z,42.60
2023-05-10T07:07:59.677Z,42.64
2023-05-10T07:10:30.805Z,42.50
2023-05-10T07:13:02.479Z,42.71
2023-05-10T07:15:33.077Z,42.60
2023-05-10T07:18:05.548Z,42.68
2023-05-10T07:20:36.111Z,42.56
2023-05-10T07:23:06.551Z,42.68
2023-05-10T07:25:37.090Z,42.60
2023-05-10T07:28:07.758Z,42.38
2023-05-10T07:30:38.338Z,42.20
2023-05-10T07:33:09.643Z,42.36
2023-05-10T07:35:40.410Z,42.44
2023-05-10T07:38:12.049Z,42.63
2023-05-10T07:40:42.732Z,42.53
2023-05-10T07:43:13.167Z,42.60
2023-05-10T07:45:43.668Z,42.72
2023-05-10T07:48:14.272Z,42.83
2023-05-10T07:50:44.725Z,42.77
2023-05-10T07:53:15.448Z,42.84
2023-05-10T07:55:46.182Z,42.85
2023-05-10T07:58:16.637Z,43.01
2023-05-10T08:00:47.139Z,43.09
2023-05-10T08:03:17.722Z,42.96
2023-05-10T08:05:48.356Z,42.69
2023-05-10T08:08:19.162Z,42.90
2023-05-10T08:10:49.740Z,43.01
2023-05-10T08:13:20.160Z,43.18
2023-05-10T08:15:52.780Z,43.21
2023-05-10T08:18:23.337Z,43.09
2023-05-10T08:20:53.887Z,42.81
2023-05-10T08:23:24.443Z,42.79
2023-05-10T08:25:54.918Z,42.71
2023-05-10T08:28:25.424Z,42.82
2023-05-10T08:30:56.307Z,42.77
2023-05-10T08:33:27.122Z,42.95
2023-05-10T08:35:57.600Z,43.09
2023-05-10T08:38:28.158Z,43.28
2023-05-10T08:41:00.040Z,43.30
2023-05-10T08:43:31.877Z,43.35
2023-05-10T08:46:05.277Z,43.35
2023-05-10T08:48:38.572Z,43.31
2023-05-10T08:51:10.467Z,43.43
2023-05-10T08:53:39.672Z,43.45
2023-05-10T08:56:11.244Z,43.33
2023-05-10T08:58:41.922Z,43.42
2023-05-10T09:01:13.238Z,43.67
2023-05-10T09:03:43.985Z,43.72
2023-05-10T09:06:16.446Z,43.95
2023-05-10T09:08:46.920Z,43.83
2023-05-10T09:11:18.212Z,43.34
2023-05-10T09:13:49.642Z,43.18
2023-05-10T09:16:21.909Z,43.17
2023-05-10T09:18:53.162Z,43.21
2023-05-10T09:21:24.243Z,43.38
2023-05-10T09:23:55.410Z,43.41
2023-05-10T09:26:27.778Z,43.59
2023-05-10T09:28:59.628Z,43.31
2023-05-10T09:31:47.517Z,43.13
2023-05-10T09:34:22.209Z,43.50
2023-05-10T09:37:01.925Z,43.77
2023-05-10T09:39:37.007Z,43.60
2023-05-10T09:42:09.630Z,43.72
2023-05-10T09:44:41.920Z,43.83
2023-05-10T09:47:12.575Z,43.65
2023-05-10T09:49:43.617Z,43.71
2023-05-10T09:52:14.038Z,43.48
2023-05-10T09:54:54.715Z,43.43
2023-05-10T09:57:26.572Z,43.14
2023-05-10T09:59:58.743Z,43.44
2023-05-10T10:02:33.692Z,43.79
2023-05-10T10:05:05.229Z,43.66
2023-05-10T10:07:36.890Z,43.28
2023-05-10T10:10:12.637Z,42.98
2023-05-10T10:12:43.883Z,42.82
2023-05-10T10:15:16.753Z,42.76
2023-05-10T10:17:47.764Z,42.74
2023-05-10T10:20:18.801Z,42.13
2023-05-10T10:22:50.136Z,41.98
2023-05-10T10:25:22.989Z,41.45
2023-05-10T10:28:09.591Z,41.35
2023-05-10T10:30:44.681Z,41.69
2023-05-10T10:33:42.507Z,41.77
2023-05-10T10:36:14.495Z,41.31
2023-05-10T10:39:02.280Z,40.78
2023-05-10T10:41:34.926Z,40.79
2023-05-10T10:44:27.532Z,41.00
2023-05-10T10:47:07.030Z,40.79
2023-05-10T10:49:45.291Z,40.45
2023-05-10T10:52:27.994Z,39.97
2023-05-10T10:55:02.762Z,40.28
2023-05-10T10:57:35.929Z,40.11
2023-05-10T11:00:37.410Z,39.62
2023-05-10T11:03:11.735Z,39.90
2023-05-10T11:05:44.846Z,40.15
2023-05-10T11:08:22.926Z,40.17
2023-05-10T11:11:07.867Z,39.94
2023-05-10T11:13:42.354Z,39.93
2023-05-10T11:16:18.291Z,39.86
2023-05-10T11:19:13.086Z,39.85
2023-05-10T11:21:50.840Z,39.80
2023-05-10T11:24:23.075Z,39.47
2023-05-10T11:26:55.798Z,39.11
2023-05-10T11:29:27.568Z,39.16
2023-05-10T11:31:59.133Z,39.15
2023-05-10T11:34:32.165Z,39.17
2023-05-10T11:37:03.654Z,39.13
2023-05-10T11:39:35.570Z,38.92
2023-05-10T11:42:06.330Z,38.72
2023-05-10T11:44:37.066Z,38.91
2023-05-10T11:47:08.528Z,38.51
2023-05-10T11:49:38.989Z,38.17
2023-05-10T11:52:12.154Z,38.43
2023-05-10T11:54:52.846Z,38.40
2023-05-10T11:57:28.174Z,38.37
2023-05-10T11:59:59.786Z,38.46
2023-05-10T12:02:31.258Z,38.33
2023-05-10T12:05:02.146Z,38.15
2023-05-10T12:07:32.550Z,37.82
2023-05-10T12:10:15.906Z,37.43
2023-05-10T12:12:49.155Z,37.03
2023-05-10T12:15:23.777Z,37.21
2023-05-10T12:17:54.610Z,37.36
2023-05-10T12:20:29.637Z,37.44
2023-05-10T12:23:02.964Z,37.52
2023-05-10T12:25:36.395Z,37.27
2023-05-10T12:30:59.643Z,36.73
2023-05-10T12:33:37.107Z,36.46
2023-05-10T12:36:08.591Z,36.63
2023-05-10T12:38:40.178Z,36.92
2023-05-10T12:41:12.478Z,37.02
2023-05-10T12:43:43.341Z,36.76
2023-05-10T12:46:15.412Z,36.65
2023-05-10T12:48:47.460Z,36.76
2023-05-10T12:51:20.556Z,36.61
2023-05-10T12:53:51.078Z,36.44
2023-05-10T12:56:21.608Z,36.43
2023-05-10T12:58:52.204Z,36.29
2023-05-10T13:01:22.703Z,36.41
2023-05-10T13:03:53.180Z,36.36
2023-05-10T13:06:23.608Z,35.86
2023-05-10T13:08:54.025Z,35.60
2023-05-10T13:11:24.545Z,35.79
2023-05-10T13:13:55.191Z,35.66
2023-05-10T13:16:25.683Z,35.71
2023-05-10T13:18:56.206Z,35.83
2023-05-10T13:21:26.844Z,35.96
2023-05-10T13:23:57.734Z,36.03
2023-05-10T13:26:29.285Z,36.19
2023-05-10T13:28:59.733Z,35.94
2023-05-10T13:31:30.381Z,36.00
2023-05-10T13:34:00.914Z,36.18
2023-05-10T13:36:31.531Z,35.91
2023-05-10T13:39:04.516Z,35.80
2023-05-10T13:41:35.338Z,35.60
2023-05-10T13:44:05.817Z,35.38
2023-05-10T13:46:36.507Z,35.26
2023-05-10T13:49:07.065Z,35.07
2023-05-10T13:51:38.420Z,35.02
2023-05-10T13:54:09.698Z,35.05
2023-05-10T13:56:41.902Z,35.12
2023-05-10T13:59:12.359Z,34.92
2023-05-10T14:01:43.802Z,34.91
2023-05-10T14:04:14.920Z,34.81
2023-05-10T14:06:45.367Z,35.04
2023-05-10T14:09:15.895Z,34.90
2023-05-10T14:11:46.970Z,34.75
2023-05-10T14:14:17.997Z,34.68
2023-05-10T14:16:48.721Z,34.37
2023-05-10T14:19:19.508Z,34.22
2023-05-10T14:21:49.975Z,34.07
2023-05-10T14:24:20.484Z,34.28
2023-05-10T14:26:54.776Z,34.41
2023-05-10T14:29:25.955Z,34.58
2023-05-10T14:31:56.832Z,34.63
2023-05-10T14:34:27.464Z,34.13
2023-05-10T14:36:58.074Z,34.07
2023-05-10T14:39:30.596Z,34.17
2023-05-10T14:42:01.138Z,34.21
2023-05-10T14:44:31.576Z,34.40
2023-05-10T14:47:02.069Z,34.69
2023-05-10T14:49:32.590Z,34.39
2023-05-10T14:52:03.310Z,34.31
2023-05-10T14:54:34.496Z,34.08
2023-05-10T14:57:05.051Z,34.28
2023-05-10T14:59:35.539Z,33.95
2023-05-10T15:02:06.559Z,34.03
2023-05-10T15:04:37.310Z,33.40
2023-05-10T15:07:08.116Z,32.74
2023-05-10T15:09:38.522Z,32.75
2023-05-10T15:12:09.068Z,32.61
2023-05-10T15:14:39.508Z,33.03
2023-05-10T15:17:10.233Z,32.67
2023-05-10T15:19:40.633Z,32.59
2023-05-10T15:22:11.364Z,32.74
2023-05-10T15:24:41.890Z,32.62
2023-05-10T15:27:12.625Z,32.39
2023-05-10T15:29:43.112Z,32.44
2023-05-10T15:32:13.559Z,32.48
2023-05-10T15:34:44.035Z,32.37
2023-05-10T15:37:14.577Z,32.16
2023-05-10T15:39:45.888Z,31.95
2023-05-10T15:42:16.733Z,31.88
2023-05-10T15:44:51.136Z,31.79
2023-05-10T15:47:21.694Z,31.82
2023-05-10T15:49:52.219Z,32.02
2023-05-10T15:52:23.848Z,32.13
2023-05-10T15:54:52.960Z,31.90
2023-05-10T15:57:23.711Z,32.12
2023-05-10T15:59:54.505Z,32.04
2023-05-10T16:02:25.111Z,32.17
2023-05-10T16:04:55.673Z,32.10
2023-05-10T16:07:26.168Z,31.84
2023-05-10T16:09:56.682Z,31.97
2023-05-10T16:12:27.270Z,32.01
2023-05-10T16:14:58.202Z,32.18
2023-05-10T16:17:28.876Z,32.32
2023-05-10T16:19:59.691Z,32.63
2023-05-10T16:22:30.987Z,32.63
2023-05-10T16:25:01.794Z,32.53
2023-05-10T16:27:33.714Z,32.42
2023-05-10T16:30:04.352Z,32.52
2023-05-10T16:32:35.183Z,32.51
2023-05-10T16:35:06.365Z,32.64
2023-05-10T16:37:36.917Z,32.67
2023-05-10T16:40:10.465Z,32.68
2023-05-10T16:42:41.002Z,32.53
2023-05-10T16:45:14.137Z,32.72
2023-05-10T16:47:44.688Z,32.43
2023-05-10T16:50:15.981Z,32.36
2023-05-10T16:52:46.463Z,32.59
2023-05-10T16:55:17.088Z,32.66
2023-05-10T16:57:47.985Z,32.57
2023-05-10T17:00:20.972Z,32.47
2023-05-10T17:02:51.496Z,32.59
2023-05-10T17:05:22.186Z,32.43
2023-05-10T17:07:53.182Z,32.65
2023-05-10T17:10:23.696Z,32.78
2023-05-10T17:12:54.736Z,32.54
2023-05-10T17:15:25.212Z,32.67
2023-05-10T17:17:55.715Z,32.77
2023-05-10T17:20:26.608Z,33.03
2023-05-10T17:22:57.059Z,33.22
2023-05-10T17:25:27.752Z,33.30
2023-05-10T17:27:58.264Z,33.47
2023-05-10T17:30:32.579Z,33.60
2023-05-10T17:33:04.227Z,33.79
2023-05-10T17:35:34.961Z,33.98
2023-05-10T17:38:05.433Z,34.18
2023-05-10T17:40:35.884Z,34.34
2023-05-10T17:43:06.385Z,34.37
2023-05-10T17:45:37.441Z,34.69
2023-05-10T17:48:09.451Z,34.77
2023-05-10T17:50:42.528Z,34.93
2023-05-10T17:53:13.081Z,35.02
2023-05-10T17:55:44.047Z,35.25
2023-05-10T17:58:15.050Z,35.30
2023-05-10T18:00:46.464Z,35.37
2023-05-10T18:03:16.942Z,35.60
2023-05-10T18:05:47.990Z,35.66
2023-05-10T18:08:22.730Z,35.72
2023-05-10T18:10:53.439Z,35.85
2023-05-10T18:13:24.255Z,36.15
2023-05-10T18:15:55.009Z,36.20
2023-05-10T18:18:25.570Z,36.32
2023-05-10T18:20:58.360Z,36.49
2023-05-10T18:23:29.266Z,36.46
2023-05-10T18:25:59.821Z,36.62
2023-05-10T18:28:30.261Z,36.85
2023-05-10T18:31:01.233Z,36.77
2023-05-10T18:33:32.201Z,36.79
2023-05-10T18:36:02.920Z,37.01
2023-05-10T18:38:33.506Z,37.25
2023-05-10T18:41:04.068Z,37.25
2023-05-10T18:43:34.898Z,37.27
2023-05-10T18:46:05.703Z,37.42
2023-05-10T18:48:36.178Z,37.42
2023-05-10T18:51:07.060Z,37.59
2023-05-10T18:53:38.084Z,37.70
2023-05-10T18:56:09.044Z,37.92
2023-05-10T18:58:39.471Z,37.98
2023-05-10T19:01:10.082Z,37.97
2023-05-10T19:03:40.690Z,38.15
2023-05-10T19:06:11.547Z,38.38
2023-05-10T19:08:42.172Z,38.40
2023-05-10T19:11:12.688Z,38.42
2023-05-10T19:13:45.289Z,38.57
2023-05-10T19:16:16.968Z,38.68
2023-05-10T19:18:46.839Z,38.92
2023-05-10T19:21:18.398Z,38.76
2023-05-10T19:23:48.930Z,38.74
2023-05-10T19:26:19.400Z,38.74
2023-05-10T19:28:51.616Z,38.90
2023-05-10T19:31:22.423Z,39.08
2023-05-10T19:33:53.546Z,39.20
2023-05-10T19:36:23.991Z,39.23
2023-05-10T19:38:55.081Z,39.44
2023-05-10T19:41:25.828Z,39.63
2023-05-10T19:43:56.448Z,39.73
2023-05-10T19:46:27.138Z,39.88
2023-05-10T19:48:57.826Z,39.93
2023-05-10T19:51:28.456Z,39.95
2023-05-10T19:53:58.968Z,39.97
2023-05-10T19:56:29.815Z,40.08
2023-05-10T19:59:02.961Z,40.06
2023-05-10T20:01:33.465Z,40.20
2023-05-10T20:04:04.116Z,40.24
2023-05-10T20:06:34.623Z,40.30
2023-05-10T20:09:05.538Z,40.28
2023-05-10T20:11:36.106Z,40.34
2023-05-10T20:14:06.581Z,40.32
2023-05-10T20:16:37.081Z,40.40
2023-05-10T20:19:07.593Z,40.75
2023-05-10T20:21:38.156Z,40.64
2023-05-10T20:24:10.269Z,40.77
2023-05-10T20:26:41.628Z,40.82
2023-05-10T20:29:13.365Z,40.84
2023-05-10T20:31:42.425Z,40.80
2023-05-10T20:34:13.304Z,40.51
2023-05-10T20:36:43.763Z,40.61
2023-05-10T20:39:14.981Z,40.49
2023-05-10T20:41:45.442Z,40.59
2023-05-10T20:44:16.065Z,40.71
2023-05-10T20:46:46.849Z,40.62
2023-05-10T20:49:17.709Z,40.68
2023-05-10T20:51:48.229Z,40.74
2023-05-10T20:54:18.697Z,40.74
2023-05-10T20:56:49.140Z,40.82
2023-05-10T20:59:19.964Z,40.97
2023-05-10T21:01:50.450Z,41.01
2023-05-10T21:04:21.377Z,40.90
2023-05-10T21:06:52.126Z,40.85
2023-05-10T21:09:22.657Z,40.77
2023-05-10T21:11:53.711Z,40.60
2023-05-10T21:14:24.296Z,40.68
2023-05-10T21:16:54.821Z,40.45
2023-05-10T21:19:25.563Z,40.25
2023-05-10T21:21:57.191Z,40.22
2023-05-10T21:24:27.890Z,39.92
2023-05-10T21:26:58.348Z,39.87
2023-05-10T21:29:28.823Z,39.85
2023-05-10T21:31:59.352Z,39.78
2023-05-10T21:34:30.189Z,39.68
2023-05-10T21:37:00.666Z,39.68
2023-05-10T21:39:31.098Z,39.63
2023-05-10T21:42:01.691Z,39.56
2023-05-10T21:44:32.629Z,39.68
2023-05-10T21:47:03.895Z,39.53
2023-05-10T21:49:35.096Z,39.66
2023-05-10T21:52:05.764Z,39.63
2023-05-10T21:54:37.522Z,39.62
2023-05-10T21:57:06.503Z,39.65
2023-05-10T21:59:37.048Z,39.66
2023-05-10T22:02:07.513Z,39.65
2023-05-10T22:04:38.094Z,39.57
2023-05-10T22:07:08.579Z,39.46
2023-05-10T22:09:39.044Z,39.54
2023-05-10T22:12:10.203Z,39.46
2023-05-10T22:14:40.680Z,39.43
2023-05-10T22:17:11.232Z,39.28
2023-05-10T22:19:41.768Z,39.32
2023-05-10T22:22:12.427Z,39.40
2023-05-10T22:24:42.952Z,39.26
2023-05-10T22:27:13.680Z,39.22
2023-05-10T22:29:44.222Z,39.23
2023-05-10T22:32:14.652Z,39.21
2023-05-10T22:34:45.178Z,39.18
2023-05-10T22:37:17.905Z,39.11
2023-05-10T22:39:49.118Z,39.04
2023-05-10T22:42:19.584Z,38.94
2023-05-10T22:44:50.165Z,39.07
2023-05-10T22:47:20.591Z,39.09
2023-05-10T22:49:51.146Z,39.09
2023-05-10T22:52:21.654Z,38.97
2023-05-10T22:54:52.097Z,39.11
2023-05-10T22:57:22.617Z,39.17
2023-05-10T22:59:53.231Z,39.23
2023-05-10T23:02:23.709Z,39.12
2023-05-10T23:04:54.291Z,38.97
2023-05-10T23:07:25.145Z,39.27
2023-05-10T23:09:55.563Z,39.29
2023-05-10T23:12:26.050Z,39.19
2023-05-10T23:14:56.549Z,39.22
2023-05-10T23:17:27.112Z,39.14
2023-05-10T23:19:57.872Z,39.20
2023-05-10T23:22:28.365Z,39.28
2023-05-10T23:24:59.173Z,39.30
2023-05-10T23:27:32.367Z,39.36
2023-05-10T23:30:03.357Z,39.44
2023-05-10T23:32:34.023Z,39.19
2023-05-10T23:35:05.066Z,39.36
2023-05-10T23:37:36.311Z,39.34
2023-05-10T23:40:08.644Z,39.59
2023-05-10T23:42:39.089Z,39.39
2023-05-10T23:45:11.257Z,39.52
2023-05-10T23:47:41.706Z,39.52
2023-05-10T23:50:13.361Z,39.45
2023-05-10T23:52:43.776Z,39.67
2023-05-10T23:55:14.905Z,39.50
2023-05-10T23:57:45.388Z,39.59
